Terminal Aerodrome Forecast
Issued by NWS Lake Charles, LA

Home | Current Version | Previous Version | Text Only | Print | Product List | Glossary On
Versions: 1 2 3 4 5 6 7 8 9 10 11 12 13 14 15 16
000
FTUS44 KLCH 240500
TAFBPT
TAF
KBPT 240520Z 2406/2506 VRB03KT P6SM VCTS SCT029 SCT040CB
      TEMPO 2406/2407 VRB15G25KT 2SM TSRA BKN029 OVC040CB
     FM240900 27003KT P6SM VCSH SCT029 BKN060
     FM241500 27005KT P6SM SCT029 BKN060
     FM242000 19007KT P6SM SCT045
     FM250000 25003KT P6SM SCT060 SCT250=

USA.gov is the U.S. government's official web portal to all federal, state and local government web resources and services.